Terminal Aerodrome Forecast
Issued by NWS Midland/Odessa, TX

Home | Current Version | Previous Version | Text Only | Print | Product List | Glossary On
Versions: 1 2 3 4 5 6 7 8 9 10 11 12 13 14 15 16 17 18
000
FTUS44 KMAF 271400 AAB
TAFMAF
TAF AMD
KMAF 271432Z 2715/2812 06014KT 3SM -FZDZSN BR OVC015
      TEMPO 2715/2718 1SM -FZDZSN BR OVC005
     FM271800 09012KT P6SM OVC015=

USA.gov is the U.S. government's official web portal to all federal, state and local government web resources and services.